createdAt,value
2018-12-07T00:01:41.153Z,3.20
2018-12-07T00:04:11.851Z,2.67
2018-12-07T00:06:42.493Z,3.10
2018-12-07T00:09:14.177Z,3.20
2018-12-07T00:11:44.878Z,2.55
2018-12-07T00:14:15.590Z,3.15
2018-12-07T00:16:46.402Z,3.40
2018-12-07T00:19:17.292Z,3.08
2018-12-07T00:21:48.342Z,3.02
2018-12-07T00:24:19.085Z,2.67
2018-12-07T00:26:49.635Z,2.70
2018-12-07T00:29:20.316Z,3.30
2018-12-07T00:31:51.061Z,2.65
2018-12-07T00:34:21.884Z,2.80
2018-12-07T00:36:52.477Z,2.92
2018-12-07T00:39:23.307Z,2.95
2018-12-07T00:41:53.973Z,2.70
2018-12-07T00:44:24.706Z,2.80
2018-12-07T00:46:55.653Z,2.52
2018-12-07T00:49:26.344Z,2.62
2018-12-07T00:51:56.912Z,2.87
2018-12-07T00:54:27.509Z,2.77
2018-12-07T00:56:59.623Z,2.62
2018-12-07T00:59:30.642Z,2.77
2018-12-07T01:02:01.278Z,2.58
2018-12-07T01:04:33.443Z,2.40
2018-12-07T01:07:04.194Z,2.72
2018-12-07T01:09:34.970Z,2.70
2018-12-07T01:12:05.469Z,2.80
2018-12-07T01:14:36.319Z,2.90
2018-12-07T01:17:07.380Z,2.58
2018-12-07T01:19:37.977Z,2.67
2018-12-07T01:22:08.629Z,2.70
2018-12-07T01:24:39.711Z,2.55
2018-12-07T01:27:10.327Z,2.95
2018-12-07T01:29:41.335Z,2.80
2018-12-07T01:32:12.156Z,2.80
2018-12-07T01:34:42.970Z,2.60
2018-12-07T01:37:14.741Z,2.80
2018-12-07T01:39:45.505Z,2.70
2018-12-07T01:42:16.320Z,2.90
2018-12-07T01:44:47.176Z,2.87
2018-12-07T01:47:17.929Z,2.50
2018-12-07T01:49:48.576Z,2.85
2018-12-07T01:52:20.275Z,3.05
2018-12-07T01:54:50.756Z,3.72
2018-12-07T01:57:21.392Z,14.10
2018-12-07T01:59:52.173Z,11.25
2018-12-07T02:02:22.633Z,20.30
2018-12-07T02:04:53.396Z,16.42
2018-12-07T02:07:31.879Z,11.45
2018-12-07T02:10:02.563Z,9.10
2018-12-07T02:12:33.222Z,9.40
2018-12-07T02:15:03.930Z,8.68
2018-12-07T02:17:34.598Z,6.20
2018-12-07T02:20:05.733Z,6.85
2018-12-07T02:22:36.637Z,6.53
2018-12-07T02:25:07.598Z,7.92
2018-12-07T02:27:43.312Z,7.00
2018-12-07T02:30:15.324Z,7.60
2018-12-07T02:32:45.927Z,7.30
2018-12-07T02:35:16.827Z,6.30
2018-12-07T02:37:47.458Z,7.00
2018-12-07T02:40:18.252Z,6.67
2018-12-07T02:42:48.930Z,6.33
2018-12-07T02:45:19.604Z,4.80
2018-12-07T02:47:50.438Z,3.75
2018-12-07T02:50:21.414Z,4.15
2018-12-07T02:52:52.125Z,3.92
2018-12-07T02:55:22.845Z,3.25
2018-12-07T02:57:53.408Z,3.42
2018-12-07T03:00:23.821Z,2.95
2018-12-07T03:02:54.848Z,2.87
2018-12-07T03:05:25.561Z,3.02
2018-12-07T03:07:56.102Z,3.25
2018-12-07T03:10:26.790Z,2.80
2018-12-07T03:12:57.324Z,3.00
2018-12-07T03:15:28.099Z,2.92
2018-12-07T03:17:58.536Z,2.58
2018-12-07T03:20:29.509Z,3.83
2018-12-07T03:22:59.912Z,3.17
2018-12-07T03:25:30.472Z,3.72
2018-12-07T03:28:00.866Z,2.90
2018-12-07T03:30:31.473Z,3.22
2018-12-07T03:33:02.160Z,3.30
2018-12-07T03:35:32.714Z,2.83
2018-12-07T03:38:03.141Z,3.30
2018-12-07T03:40:34.005Z,3.00
2018-12-07T03:43:05.250Z,3.15
2018-12-07T03:45:35.935Z,3.37
2018-12-07T03:48:06.497Z,4.28
2018-12-07T03:50:37.008Z,3.33
2018-12-07T03:53:07.594Z,2.85
2018-12-07T03:55:38.100Z,2.50
2018-12-07T03:58:08.585Z,2.47
2018-12-07T04:00:39.199Z,3.00
2018-12-07T04:03:09.927Z,2.67
2018-12-07T04:05:40.469Z,3.37
2018-12-07T04:08:11.070Z,2.85
2018-12-07T04:10:41.791Z,2.37
2018-12-07T04:13:12.503Z,3.00
2018-12-07T04:15:43.179Z,4.37
2018-12-07T04:18:13.765Z,4.20
2018-12-07T04:20:44.526Z,3.30
2018-12-07T04:23:15.228Z,3.55
2018-12-07T04:25:45.984Z,3.50
2018-12-07T04:28:18.670Z,3.65
2018-12-07T04:30:49.336Z,2.80
2018-12-07T04:33:19.770Z,2.55
2018-12-07T04:35:50.354Z,3.08
2018-12-07T04:38:21.287Z,2.62
2018-12-07T04:40:51.974Z,2.95
2018-12-07T04:43:22.697Z,4.50
2018-12-07T04:45:53.409Z,4.67
2018-12-07T04:48:24.248Z,3.95
2018-12-07T04:50:55.085Z,3.85
2018-12-07T04:53:26.026Z,4.12
2018-12-07T04:55:56.602Z,4.28
2018-12-07T04:58:27.030Z,5.53
2018-12-07T05:00:57.471Z,5.67
2018-12-07T05:03:28.153Z,6.33
2018-12-07T05:05:59.102Z,5.25
2018-12-07T05:08:29.901Z,4.65
2018-12-07T05:11:00.856Z,3.95
2018-12-07T05:13:31.449Z,4.22
2018-12-07T05:16:02.132Z,4.12
2018-12-07T05:18:33.020Z,5.25
2018-12-07T05:21:03.799Z,3.65
2018-12-07T05:23:34.436Z,4.15
2018-12-07T05:26:05.083Z,3.60
2018-12-07T05:28:35.616Z,3.58
2018-12-07T05:31:06.380Z,3.27
2018-12-07T05:33:37.042Z,3.37
2018-12-07T05:36:07.623Z,3.45
2018-12-07T05:38:38.249Z,3.33
2018-12-07T05:41:09.104Z,15.83
2018-12-07T05:43:49.152Z,17.10
2018-12-07T05:46:19.759Z,11.80
2018-12-07T05:48:50.317Z,6.25
2018-12-07T05:51:20.810Z,4.53
2018-12-07T05:53:51.743Z,3.80
2018-12-07T05:56:22.601Z,3.50
2018-12-07T05:58:53.559Z,4.20
2018-12-07T06:01:24.163Z,4.22
2018-12-07T06:03:54.876Z,3.80
2018-12-07T06:06:26.495Z,3.65
2018-12-07T06:08:57.369Z,3.40
2018-12-07T06:11:28.169Z,4.03
2018-12-07T06:13:59.013Z,4.58
2018-12-07T06:16:29.928Z,5.50
2018-12-07T06:19:00.746Z,12.05
2018-12-07T06:21:31.329Z,7.78
2018-12-07T06:24:01.891Z,5.20
2018-12-07T06:26:32.897Z,6.00
2018-12-07T06:29:03.733Z,3.90
2018-12-07T06:31:34.621Z,6.37
2018-12-07T06:34:05.417Z,4.70
2018-12-07T06:36:36.177Z,4.15
2018-12-07T06:39:10.200Z,4.45
2018-12-07T06:41:40.668Z,6.55
2018-12-07T06:44:11.698Z,6.35
2018-12-07T06:46:42.485Z,6.90
2018-12-07T06:49:14.039Z,6.60
2018-12-07T06:51:45.453Z,4.67
2018-12-07T06:54:16.116Z,3.67
2018-12-07T06:56:46.782Z,4.17
2018-12-07T06:59:17.302Z,3.80
2018-12-07T07:01:48.002Z,5.72
2018-12-07T07:04:18.633Z,6.03
2018-12-07T07:06:49.501Z,5.78
2018-12-07T07:09:20.092Z,4.70
2018-12-07T07:11:50.597Z,5.03
2018-12-07T07:14:21.504Z,5.37
2018-12-07T07:16:51.937Z,5.22
2018-12-07T07:19:22.647Z,9.60
2018-12-07T07:21:53.320Z,8.60
2018-12-07T07:24:24.030Z,5.97
2018-12-07T07:26:54.845Z,5.22
2018-12-07T07:29:25.378Z,5.90
2018-12-07T07:31:56.690Z,4.27
2018-12-07T07:34:27.784Z,4.83
2018-12-07T07:36:58.353Z,4.60
2018-12-07T07:39:28.930Z,4.40
2018-12-07T07:41:59.647Z,3.93
2018-12-07T07:44:30.080Z,5.13
2018-12-07T07:47:00.996Z,5.63
2018-12-07T07:49:31.472Z,15.27
2018-12-07T07:52:02.193Z,12.13
2018-12-07T07:54:32.761Z,5.67
2018-12-07T07:57:03.411Z,6.43
2018-12-07T07:59:33.891Z,3.90
2018-12-07T08:02:04.710Z,3.70
2018-12-07T08:04:35.404Z,5.60
2018-12-07T08:07:06.059Z,3.40
2018-12-07T08:09:36.949Z,3.60
2018-12-07T08:12:07.871Z,3.03
2018-12-07T08:14:38.467Z,3.83
2018-12-07T08:17:09.207Z,4.37
2018-12-07T08:19:39.732Z,6.27
2018-12-07T08:22:10.436Z,3.90
2018-12-07T08:24:40.925Z,4.10
2018-12-07T08:27:11.623Z,6.87
2018-12-07T08:29:42.368Z,6.93
2018-12-07T08:32:13.285Z,6.90
2018-12-07T08:34:43.963Z,7.77
2018-12-07T08:37:14.733Z,15.00
2018-12-07T08:39:45.545Z,6.83
2018-12-07T08:42:16.052Z,15.37
2018-12-07T08:44:46.837Z,7.23
2018-12-07T08:47:17.405Z,5.40
2018-12-07T08:49:52.812Z,9.33
2018-12-07T08:52:23.456Z,12.43
2018-12-07T08:54:53.930Z,12.33
2018-12-07T08:57:24.454Z,10.40
2018-12-07T08:59:55.031Z,6.07
2018-12-07T09:02:25.509Z,4.30
2018-12-07T09:04:56.493Z,4.03
2018-12-07T09:07:27.095Z,5.60
2018-12-07T09:09:57.791Z,7.90
2018-12-07T09:12:28.562Z,9.80
2018-12-07T09:14:59.217Z,6.60
2018-12-07T09:17:29.833Z,8.33
2018-12-07T09:20:00.505Z,6.63
2018-12-07T09:22:31.054Z,5.87
2018-12-07T09:25:01.671Z,7.77
2018-12-07T09:27:32.069Z,7.33
2018-12-07T09:30:02.788Z,6.23
2018-12-07T09:32:34.501Z,6.30
2018-12-07T09:35:05.516Z,5.37
2018-12-07T09:37:36.291Z,4.50
2018-12-07T09:40:06.981Z,5.73
2018-12-07T09:42:37.666Z,5.90
2018-12-07T09:45:08.986Z,10.83
2018-12-07T09:47:39.964Z,5.90
2018-12-07T09:50:10.916Z,4.00
2018-12-07T09:52:41.716Z,5.80
2018-12-07T09:55:12.365Z,6.30
2018-12-07T09:57:43.421Z,7.80
2018-12-07T10:00:13.938Z,7.00
2018-12-07T10:02:44.897Z,6.90
2018-12-07T10:05:15.497Z,21.90
2018-12-07T10:07:52.992Z,5.07
2018-12-07T10:10:23.556Z,7.23
2018-12-07T10:12:54.149Z,10.50
2018-12-07T10:15:24.802Z,16.10
2018-12-07T10:17:55.594Z,7.57
2018-12-07T10:20:26.405Z,4.87
2018-12-07T10:22:58.144Z,3.60
2018-12-07T10:25:29.220Z,9.87
2018-12-07T10:28:00.057Z,7.43
2018-12-07T10:30:30.769Z,15.17
2018-12-07T10:33:01.453Z,5.13
2018-12-07T10:35:31.954Z,5.23
2018-12-07T10:38:02.689Z,7.40
2018-12-07T10:40:34.065Z,4.47
2018-12-07T10:43:04.942Z,4.57
2018-12-07T10:45:35.462Z,4.07
2018-12-07T10:48:06.305Z,3.43
2018-12-07T10:50:36.990Z,8.23
2018-12-07T10:53:07.755Z,8.57
2018-12-07T10:55:38.670Z,7.63
2018-12-07T10:58:09.584Z,8.53
2018-12-07T11:00:45.635Z,3.43
2018-12-07T11:03:21.130Z,3.17
2018-12-07T11:05:56.898Z,3.20
2018-12-07T11:08:32.699Z,6.00
2018-12-07T11:11:08.375Z,4.00
2018-12-07T11:13:44.074Z,6.47
2018-12-07T11:16:19.543Z,5.07
2018-12-07T11:18:55.253Z,8.67
2018-12-07T11:21:30.822Z,7.50
2018-12-07T11:24:06.389Z,5.43
2018-12-07T11:26:42.950Z,4.27
2018-12-07T11:30:17.165Z,7.30
2018-12-07T11:32:52.799Z,8.30
2018-12-07T11:35:28.254Z,17.70
2018-12-07T11:37:58.855Z,11.63
2018-12-07T11:40:29.521Z,3.97
2018-12-07T11:43:01.535Z,5.43
2018-12-07T11:45:32.181Z,3.30
2018-12-07T11:48:02.936Z,3.63
2018-12-07T11:50:33.426Z,18.93
2018-12-07T11:53:04.173Z,17.63
2018-12-07T11:55:35.294Z,11.73
2018-12-07T11:58:06.206Z,5.10
2018-12-07T12:00:36.808Z,4.03
2018-12-07T12:03:07.547Z,4.23
2018-12-07T12:05:38.330Z,3.93
2018-12-07T12:08:08.938Z,4.27
2018-12-07T12:13:13.420Z,6.50
2018-12-07T12:15:44.239Z,3.97
2018-12-07T12:18:15.354Z,5.53
2018-12-07T12:20:45.974Z,6.20
2018-12-07T12:23:16.704Z,6.40
2018-12-07T12:25:47.293Z,4.13
2018-12-07T12:28:18.066Z,4.33
2018-12-07T12:30:48.738Z,2.87
2018-12-07T12:33:19.550Z,3.87
2018-12-07T12:35:50.162Z,4.43
2018-12-07T12:38:20.744Z,5.13
2018-12-07T12:40:51.306Z,4.30
2018-12-07T12:43:21.984Z,8.00
2018-12-07T12:45:52.690Z,8.90
2018-12-07T12:48:23.344Z,9.70
2018-12-07T12:50:56.074Z,3.60
2018-12-07T12:53:26.680Z,5.50
2018-12-07T12:55:57.771Z,4.77
2018-12-07T12:58:28.547Z,3.97
2018-12-07T13:00:59.439Z,3.67
2018-12-07T13:03:30.482Z,3.30
2018-12-07T13:06:01.512Z,9.50
2018-12-07T13:08:32.133Z,5.83
2018-12-07T13:11:02.851Z,6.47
2018-12-07T13:13:33.450Z,3.67
2018-12-07T13:16:04.439Z,3.83
2018-12-07T13:18:35.556Z,8.47
2018-12-07T13:21:06.333Z,9.18
2018-12-07T13:23:37.131Z,5.30
2018-12-07T13:26:08.132Z,3.47
2018-12-07T13:28:38.891Z,3.50
2018-12-07T13:31:09.498Z,3.53
2018-12-07T13:33:40.515Z,5.75
2018-12-07T13:36:10.959Z,10.00
2018-12-07T13:38:41.764Z,10.73
2018-12-07T13:41:12.788Z,6.62
2018-12-07T13:43:43.644Z,11.50
2018-12-07T13:46:14.329Z,21.77
2018-12-07T13:48:45.106Z,21.97
2018-12-07T13:51:16.157Z,19.57
2018-12-07T13:53:46.929Z,31.57
2018-12-07T13:56:17.870Z,25.72
2018-12-07T13:58:48.759Z,30.70
2018-12-07T14:01:19.449Z,31.77
2018-12-07T14:03:50.271Z,23.30
2018-12-07T14:06:21.534Z,41.23
2018-12-07T14:08:52.253Z,44.63
2018-12-07T14:11:23.488Z,26.42
2018-12-07T14:13:54.124Z,25.02
2018-12-07T14:16:25.210Z,26.25
2018-12-07T14:18:56.109Z,44.00
2018-12-07T14:21:30.157Z,43.85
2018-12-07T14:24:01.543Z,27.50
2018-12-07T14:26:32.238Z,22.22
2018-12-07T14:29:03.398Z,21.12
2018-12-07T14:31:34.162Z,18.87
2018-12-07T14:34:04.966Z,19.42
2018-12-07T14:36:35.997Z,16.40
2018-12-07T14:39:08.590Z,12.37
2018-12-07T14:41:39.477Z,10.00
2018-12-07T14:44:10.061Z,10.30
2018-12-07T14:46:40.788Z,10.18
2018-12-07T14:49:11.849Z,9.93
2018-12-07T14:51:42.628Z,10.63
2018-12-07T14:54:13.498Z,9.03
2018-12-07T14:56:44.553Z,10.18
2018-12-07T14:59:15.265Z,8.88
2018-12-07T15:01:46.473Z,10.35
2018-12-07T15:04:17.479Z,13.03
2018-12-07T15:06:48.354Z,11.75
2018-12-07T15:09:18.882Z,14.35
2018-12-07T15:11:50.148Z,15.53
2018-12-07T15:14:20.992Z,18.70
2018-12-07T15:16:51.901Z,19.30
2018-12-07T15:19:22.594Z,22.37
2018-12-07T15:21:53.460Z,23.55
2018-12-07T15:24:24.136Z,23.35
2018-12-07T15:26:55.073Z,26.77
2018-12-07T15:29:25.980Z,25.72
2018-12-07T15:31:57.682Z,28.25
2018-12-07T15:34:28.360Z,28.27
2018-12-07T15:36:59.177Z,30.90
2018-12-07T15:39:29.899Z,29.55
2018-12-07T15:42:00.707Z,26.07
2018-12-07T15:44:31.714Z,25.23
2018-12-07T15:47:02.769Z,27.30
2018-12-07T15:49:33.799Z,25.10
2018-12-07T15:52:04.751Z,26.97
2018-12-07T15:54:35.720Z,28.02
2018-12-07T15:57:06.516Z,25.82
2018-12-07T15:59:37.469Z,22.87
2018-12-07T16:02:08.636Z,22.62
2018-12-07T16:04:39.391Z,21.12
2018-12-07T16:07:10.125Z,21.95
2018-12-07T16:09:41.061Z,25.80
2018-12-07T16:12:12.053Z,29.02
2018-12-07T16:14:42.937Z,28.98
2018-12-07T16:17:14.755Z,31.35
2018-12-07T16:19:45.317Z,34.90
2018-12-07T16:22:15.962Z,28.50
2018-12-07T16:24:46.958Z,26.57
2018-12-07T16:27:17.569Z,23.32
2018-12-07T16:29:48.854Z,18.10
2018-12-07T16:32:19.800Z,15.90
2018-12-07T16:34:50.807Z,14.83
2018-12-07T16:37:21.685Z,14.63
2018-12-07T16:39:52.724Z,13.68
2018-12-07T16:42:24.042Z,15.68
2018-12-07T16:44:54.700Z,16.80
2018-12-07T16:47:25.844Z,15.83
2018-12-07T16:49:57.075Z,14.07
2018-12-07T16:52:28.080Z,16.87
2018-12-07T16:54:58.982Z,21.33
2018-12-07T16:57:30.976Z,58.80
2018-12-07T17:00:02.436Z,73.50
2018-12-07T17:02:34.295Z,87.37
2018-12-07T17:05:05.738Z,67.30
2018-12-07T17:07:36.585Z,65.42
2018-12-07T17:10:08.705Z,70.17
2018-12-07T17:12:39.693Z,58.40
2018-12-07T17:15:10.958Z,54.10
2018-12-07T17:17:42.137Z,48.65
2018-12-07T17:20:13.108Z,49.75
2018-12-07T17:22:44.493Z,53.58
2018-12-07T17:25:15.470Z,49.67
2018-12-07T17:27:46.603Z,44.13
2018-12-07T17:30:17.624Z,42.78
2018-12-07T17:32:49.883Z,39.63
2018-12-07T17:35:21.001Z,26.57
2018-12-07T17:37:52.713Z,18.30
2018-12-07T17:40:24.316Z,15.00
2018-12-07T17:42:57.126Z,14.13
2018-12-07T17:45:28.285Z,14.20
2018-12-07T17:48:00.184Z,14.35
2018-12-07T17:50:31.917Z,14.18
2018-12-07T17:53:03.157Z,30.40
2018-12-07T17:55:34.084Z,26.42
2018-12-07T17:58:05.629Z,32.08
2018-12-07T18:00:37.342Z,34.50
2018-12-07T18:03:08.782Z,28.30
2018-12-07T18:05:40.364Z,28.60
2018-12-07T18:08:11.348Z,25.80
2018-12-07T18:13:17.229Z,23.00
2018-12-07T18:15:48.451Z,21.12
2018-12-07T18:18:19.834Z,21.55
2018-12-07T18:20:55.179Z,23.67
2018-12-07T18:26:00.887Z,14.40
2018-12-07T18:28:32.289Z,12.75
2018-12-07T18:31:03.937Z,13.28
2018-12-07T18:33:35.331Z,13.00
2018-12-07T18:36:06.066Z,12.30
2018-12-07T18:38:37.272Z,12.18
2018-12-07T18:41:08.335Z,12.23
2018-12-07T18:43:39.783Z,12.78
2018-12-07T18:46:11.078Z,14.75
2018-12-07T18:48:42.245Z,15.00
2018-12-07T18:51:13.349Z,19.95
2018-12-07T18:53:45.398Z,19.30
2018-12-07T18:56:16.530Z,18.87
2018-12-07T18:58:49.007Z,20.25
2018-12-07T19:01:20.441Z,19.92
2018-12-07T19:03:51.809Z,21.25
2018-12-07T19:06:23.686Z,23.12
2018-12-07T19:08:54.923Z,23.40
2018-12-07T19:11:26.306Z,20.50
2018-12-07T19:13:58.000Z,21.30
2018-12-07T19:16:29.401Z,20.43
2018-12-07T19:19:03.659Z,20.08
2018-12-07T19:21:36.024Z,20.00
2018-12-07T19:24:08.772Z,21.33
2018-12-07T19:26:39.803Z,22.30
2018-12-07T19:29:10.802Z,22.95
2018-12-07T19:31:41.943Z,22.13
2018-12-07T19:34:12.702Z,21.30
2018-12-07T19:36:43.763Z,20.95
2018-12-07T19:39:14.677Z,21.10
2018-12-07T19:41:45.601Z,21.20
2018-12-07T19:44:16.519Z,21.97
2018-12-07T19:46:47.849Z,21.10
2018-12-07T19:49:19.035Z,25.27
2018-12-07T19:51:51.986Z,28.38
2018-12-07T19:54:23.440Z,24.25
2018-12-07T19:56:54.288Z,21.93
2018-12-07T19:59:25.670Z,21.55
2018-12-07T20:01:56.458Z,21.17
2018-12-07T20:04:27.080Z,21.50
2018-12-07T20:06:57.811Z,25.12
2018-12-07T20:09:28.792Z,24.00
2018-12-07T20:11:59.828Z,22.98
2018-12-07T20:14:30.663Z,23.22
2018-12-07T20:17:01.349Z,22.60
2018-12-07T20:19:32.317Z,20.45
2018-12-07T20:22:03.311Z,20.15
2018-12-07T20:24:34.221Z,20.92
2018-12-07T20:27:06.249Z,21.48
2018-12-07T20:29:37.222Z,20.85
2018-12-07T20:32:07.909Z,20.82
2018-12-07T20:34:38.828Z,21.10
2018-12-07T20:37:09.693Z,20.72
2018-12-07T20:39:40.692Z,20.32
2018-12-07T20:42:11.722Z,20.85
2018-12-07T20:44:42.385Z,18.80
2018-12-07T20:47:12.920Z,17.48
2018-12-07T20:49:44.086Z,22.07
2018-12-07T20:52:15.529Z,20.85
2018-12-07T20:54:46.585Z,19.87
2018-12-07T20:57:17.501Z,21.15
2018-12-07T20:59:48.459Z,22.30
2018-12-07T21:02:19.267Z,19.55
2018-12-07T21:04:51.576Z,18.95
2018-12-07T21:07:38.033Z,18.45
2018-12-07T21:11:23.344Z,20.65
2018-12-07T21:14:58.991Z,19.95
2018-12-07T21:17:33.692Z,19.50
2018-12-07T21:20:18.322Z,20.08
2018-12-07T21:22:49.428Z,19.40
2018-12-07T21:25:20.706Z,17.60
2018-12-07T21:27:52.107Z,17.20
2018-12-07T21:30:56.396Z,18.90
2018-12-07T21:33:41.649Z,17.82
2018-12-07T21:36:33.230Z,16.95
2018-12-07T21:39:04.614Z,16.55
2018-12-07T21:41:35.485Z,14.45
2018-12-07T21:44:06.418Z,16.65
2018-12-07T21:46:38.004Z,16.55
2018-12-07T21:49:10.165Z,16.05
2018-12-07T21:51:49.332Z,16.75
2018-12-07T21:54:20.059Z,14.87
2018-12-07T21:56:51.026Z,16.25
2018-12-07T21:59:21.897Z,16.25
2018-12-07T22:01:55.890Z,16.20
2018-12-07T22:04:26.883Z,16.45
2018-12-07T22:06:58.359Z,14.87
2018-12-07T22:09:30.381Z,14.53
2018-12-07T22:12:01.105Z,15.18
2018-12-07T22:14:31.999Z,15.15
2018-12-07T22:17:03.858Z,16.27
2018-12-07T22:19:34.468Z,16.97
2018-12-07T22:22:05.087Z,18.02
2018-12-07T22:24:36.693Z,19.23
2018-12-07T22:27:08.050Z,21.85
2018-12-07T22:29:38.889Z,22.05
2018-12-07T22:32:09.938Z,18.23
2018-12-07T22:34:40.685Z,16.67
2018-12-07T22:37:11.833Z,15.85
2018-12-07T22:39:42.664Z,16.00
2018-12-07T22:42:13.721Z,16.02
2018-12-07T22:44:44.707Z,15.75
2018-12-07T22:47:15.578Z,15.50
2018-12-07T22:49:46.465Z,16.52
2018-12-07T22:52:17.716Z,18.67
2018-12-07T22:54:48.655Z,22.75
2018-12-07T22:57:19.493Z,19.77
2018-12-07T22:59:50.319Z,22.45
2018-12-07T23:02:23.976Z,23.38
2018-12-07T23:04:55.174Z,26.20
2018-12-07T23:07:25.965Z,25.23
2018-12-07T23:09:56.750Z,23.87
2018-12-07T23:12:27.780Z,24.65
2018-12-07T23:14:58.433Z,23.18
2018-12-07T23:17:29.662Z,21.80
2018-12-07T23:20:00.392Z,20.45
2018-12-07T23:22:30.985Z,19.62
2018-12-07T23:25:01.753Z,20.48
2018-12-07T23:27:32.463Z,22.17
2018-12-07T23:30:02.901Z,22.70
2018-12-07T23:32:36.269Z,23.62
2018-12-07T23:35:07.889Z,23.67
2018-12-07T23:37:38.807Z,24.87
2018-12-07T23:40:09.645Z,25.30
2018-12-07T23:42:40.147Z,25.05
2018-12-07T23:45:11.203Z,26.02
2018-12-07T23:47:42.000Z,24.45
2018-12-07T23:50:12.511Z,22.77
2018-12-07T23:52:43.599Z,22.37
2018-12-07T23:55:14.764Z,23.18
2018-12-07T23:57:45.400Z,23.55
